Time;durP1;ratioP1;P1;durP2;ratioP2;P2;SDS_P1;SDS_P2;PMS_P1;PMS_P2;Temp;Humidity;BMP_temperature;BMP_pressure;BME280_temperature;BME280_humidity;BME280_pressure;Samples;Min_cycle;Max_cycle;Signal;HPM_P1;HPM_P2
2023/05/08 00:00:10;;;;;;;9.20;8.30;;;14.70;99.90;;;;;;4976991;28;20194;-78
2023/05/08 00:02:40;;;;;;;8.50;7.53;;;14.70;99.90;;;;;;4976412;28;20648;-78
2023/05/08 00:05:07;;;;;;;8.80;7.90;;;14.70;99.90;;;;;;4967253;28;20206;-77
2023/05/08 00:07:35;;;;;;;10.17;9.17;;;14.70;99.90;;;;;;4969935;28;20569;-77
2023/05/08 00:10:02;;;;;;;8.80;7.97;;;14.70;99.90;;;;;;4977875;28;20229;-76
2023/05/08 00:12:29;;;;;;;9.50;8.60;;;14.70;99.90;;;;;;4975308;28;20267;-78
2023/05/08 00:14:55;;;;;;;10.77;9.77;;;14.70;99.90;;;;;;4968069;28;20213;-78
2023/05/08 00:17:22;;;;;;;12.50;11.03;;;14.70;99.90;;;;;;4972201;28;20568;-77
2023/05/08 00:19:50;;;;;;;11.73;10.53;;;14.70;99.90;;;;;;4976134;28;20218;-77
2023/05/08 00:22:17;;;;;;;10.43;9.53;;;14.70;99.90;;;;;;4966645;28;20203;-77
2023/05/08 00:24:44;;;;;;;12.77;11.40;;;14.70;99.90;;;;;;4980647;28;20627;-77
2023/05/08 00:27:11;;;;;;;12.07;10.80;;;14.70;99.90;;;;;;4963728;28;20221;-77
2023/05/08 00:29:39;;;;;;;11.67;10.30;;;14.70;99.90;;;;;;4979152;28;20255;-78
2023/05/08 00:32:06;;;;;;;12.73;11.40;;;14.70;99.90;;;;;;4966373;28;20212;-77
2023/05/08 00:34:32;;;;;;;11.57;10.40;;;14.70;99.90;;;;;;4968699;28;20619;-77
2023/05/08 00:37:01;;;;;;;13.07;11.77;;;14.70;99.90;;;;;;4968375;28;20662;-77
2023/05/08 00:39:28;;;;;;;12.80;11.50;;;14.70;99.90;;;;;;4969952;28;20229;-77
2023/05/08 00:41:55;;;;;;;12.43;11.13;;;14.70;99.90;;;;;;4971373;28;20217;-77
2023/05/08 00:44:22;;;;;;;13.40;12.00;;;14.70;99.90;;;;;;4971118;28;20554;-77
2023/05/08 00:46:49;;;;;;;12.73;11.43;;;14.70;99.90;;;;;;4968876;28;20680;-78
2023/05/08 00:49:18;;;;;;;12.40;11.17;;;14.70;99.90;;;;;;4972050;28;20243;-77
2023/05/08 00:51:47;;;;;;;12.60;11.40;;;14.70;99.90;;;;;;4969055;28;20657;-77
2023/05/08 00:54:16;;;;;;;13.60;12.20;;;14.70;99.90;;;;;;4976368;28;20788;-76
2023/05/08 00:56:43;;;;;;;13.47;11.40;;;14.70;99.90;;;;;;4969525;28;20223;-78
2023/05/08 00:59:13;;;;;;;13.80;12.40;;;14.60;99.90;;;;;;4968463;28;20227;-77
2023/05/08 01:01:41;;;;;;;12.63;11.17;;;14.70;99.90;;;;;;4970436;28;20728;-78
2023/05/08 01:04:08;;;;;;;13.30;11.90;;;14.70;99.90;;;;;;4975605;28;20708;-77
2023/05/08 01:06:35;;;;;;;12.60;11.40;;;14.70;99.90;;;;;;4976099;28;20684;-76
2023/05/08 01:09:03;;;;;;;13.93;12.40;;;14.70;99.90;;;;;;4970370;28;20244;-77
2023/05/08 01:11:38;;;;;;;16.63;14.33;;;14.70;99.90;;;;;;4972771;28;20203;-77
2023/05/08 01:14:12;;;;;;;16.23;13.23;;;14.70;99.90;;;;;;4968984;28;20205;-78
2023/05/08 01:16:54;;;;;;;15.23;13.63;;;14.80;99.90;;;;;;4968404;28;20763;-77
2023/05/08 01:19:57;;;;;;;15.13;13.60;;;14.80;99.90;;;;;;4969883;28;20342;-77
2023/05/08 01:22:42;;;;;;;15.60;14.00;;;14.90;99.90;;;;;;4954957;28;20202;-77
2023/05/08 01:25:31;;;;;;;16.83;14.67;;;14.80;99.90;;;;;;4969051;28;20234;-77
2023/05/08 01:28:21;;;;;;;17.13;15.20;;;14.80;99.90;;;;;;4962069;28;20272;-77
2023/05/08 01:31:11;;;;;;;15.73;14.07;;;14.90;99.90;;;;;;4968813;28;20224;-77
2023/05/08 01:33:46;;;;;;;16.50;14.80;;;14.80;99.90;;;;;;4971243;28;20204;-77
2023/05/08 01:36:20;;;;;;;15.30;13.53;;;14.80;99.90;;;;;;4970750;28;20211;-77
2023/05/08 01:38:53;;;;;;;17.20;15.07;;;14.80;99.90;;;;;;4965731;28;20724;-78
2023/05/08 01:41:26;;;;;;;18.20;16.23;;;14.80;99.90;;;;;;4981968;28;20697;-77
2023/05/08 01:44:06;;;;;;;15.87;14.27;;;14.80;99.90;;;;;;4979989;28;20281;-76
2023/05/08 01:46:33;;;;;;;14.43;13.00;;;14.80;99.90;;;;;;4968814;28;20202;-77
2023/05/08 01:49:12;;;;;;;16.93;14.50;;;14.80;99.90;;;;;;4972525;28;20319;-77
2023/05/08 01:51:44;;;;;;;16.33;14.03;;;14.80;99.90;;;;;;4978444;28;20701;-77
2023/05/08 01:54:15;;;;;;;16.60;14.90;;;14.80;99.90;;;;;;4973320;28;20205;-78
2023/05/08 01:56:45;;;;;;;17.43;14.33;;;14.80;99.90;;;;;;4969206;28;20298;-77
2023/05/08 01:59:14;;;;;;;14.30;12.80;;;14.80;99.90;;;;;;4968988;28;20288;-76
2023/05/08 02:01:44;;;;;;;18.83;15.13;;;14.80;99.90;;;;;;4969408;28;20200;-77
2023/05/08 02:04:15;;;;;;;17.13;15.33;;;14.80;99.90;;;;;;4970470;28;20215;-78
2023/05/08 02:06:42;;;;;;;19.20;17.13;;;14.80;99.90;;;;;;4969019;28;20409;-77
2023/05/08 02:09:10;;;;;;;18.23;14.10;;;14.80;99.90;;;;;;4972095;28;20214;-77
2023/05/08 02:11:39;;;;;;;17.80;15.77;;;14.80;99.90;;;;;;4975956;28;20216;-77
2023/05/08 02:14:08;;;;;;;19.57;17.57;;;14.70;99.90;;;;;;4965844;28;20202;-79
2023/05/08 02:16:37;;;;;;;20.97;17.47;;;14.80;99.90;;;;;;4969203;28;20201;-77
2023/05/08 02:19:06;;;;;;;18.53;16.63;;;14.80;99.90;;;;;;4974903;28;20223;-77
2023/05/08 02:21:35;;;;;;;18.87;16.87;;;14.70;99.90;;;;;;4969479;28;20214;-77
2023/05/08 02:24:04;;;;;;;19.27;17.17;;;14.70;99.90;;;;;;4975021;28;20270;-78
2023/05/08 02:26:32;;;;;;;18.33;16.37;;;14.70;99.90;;;;;;4969933;28;20288;-77
2023/05/08 02:29:02;;;;;;;18.47;16.40;;;14.70;99.90;;;;;;4977218;28;20262;-77
2023/05/08 02:31:30;;;;;;;17.93;16.00;;;14.70;99.90;;;;;;4970206;28;20226;-77
2023/05/08 02:33:58;;;;;;;19.97;16.90;;;14.70;99.90;;;;;;4968333;28;20200;-77
2023/05/08 02:36:27;;;;;;;19.30;17.13;;;14.70;99.90;;;;;;4977800;28;20194;-77
2023/05/08 02:38:59;;;;;;;19.27;17.20;;;14.60;99.90;;;;;;4971086;28;20303;-77
2023/05/08 02:41:31;;;;;;;19.20;16.53;;;14.60;99.90;;;;;;4972566;28;20205;-80
2023/05/08 02:43:58;;;;;;;19.40;17.17;;;14.60;99.90;;;;;;4971717;28;20279;-78
2023/05/08 02:46:32;;;;;;;17.77;15.97;;;14.60;99.90;;;;;;4965685;28;20254;-77
2023/05/08 02:49:03;;;;;;;16.97;15.17;;;14.50;99.90;;;;;;4978769;28;20652;-77
2023/05/08 02:51:43;;;;;;;21.50;17.70;;;14.50;99.90;;;;;;4961738;28;20566;-79
2023/05/08 02:54:17;;;;;;;19.87;17.67;;;14.60;99.90;;;;;;4957279;28;20747;-78
2023/05/08 02:56:55;;;;;;;18.47;16.43;;;14.60;99.90;;;;;;4957578;28;20206;-79
2023/05/08 02:59:28;;;;;;;17.93;15.77;;;14.60;99.90;;;;;;4957518;28;20242;-78
2023/05/08 03:02:02;;;;;;;18.47;15.67;;;14.60;99.90;;;;;;4971188;28;20202;-79
2023/05/08 03:04:34;;;;;;;19.37;17.10;;;14.60;99.90;;;;;;4972856;28;20209;-79
2023/05/08 03:07:02;;;;;;;19.27;16.90;;;14.60;99.90;;;;;;4957104;28;20575;-79
2023/05/08 03:09:39;;;;;;;21.07;18.57;;;14.60;99.90;;;;;;4956496;28;20609;-80
2023/05/08 03:12:10;;;;;;;18.13;16.23;;;14.60;99.90;;;;;;4961032;28;20212;-79
2023/05/08 03:14:44;;;;;;;17.63;15.73;;;14.60;99.90;;;;;;4956442;28;20749;-79
2023/05/08 03:17:15;;;;;;;19.57;17.27;;;14.60;99.90;;;;;;4966785;28;20196;-82
2023/05/08 03:19:44;;;;;;;19.17;17.07;;;14.60;99.90;;;;;;4953500;28;20225;-82
2023/05/08 03:22:12;;;;;;;19.20;17.13;;;14.50;99.90;;;;;;4956214;28;20204;-78
2023/05/08 03:24:42;;;;;;;20.97;18.30;;;14.60;99.90;;;;;;4971363;28;20274;-79
2023/05/08 03:27:10;;;;;;;19.37;17.27;;;14.60;99.90;;;;;;4960347;28;20202;-80
2023/05/08 03:29:39;;;;;;;18.83;16.83;;;14.60;99.90;;;;;;4959881;28;20220;-79
2023/05/08 03:32:06;;;;;;;20.60;18.40;;;14.60;99.90;;;;;;4980307;28;20231;-78
2023/05/08 03:34:35;;;;;;;20.23;17.43;;;14.60;99.90;;;;;;4958864;28;20664;-79
2023/05/08 03:37:02;;;;;;;19.57;16.23;;;14.60;99.90;;;;;;4958780;28;20651;-80
2023/05/08 03:39:30;;;;;;;19.90;17.77;;;14.60;99.90;;;;;;4957866;28;20227;-79
2023/05/08 03:41:58;;;;;;;21.23;18.20;;;14.60;99.90;;;;;;4961579;28;20201;-78
2023/05/08 03:44:28;;;;;;;19.67;17.53;;;14.50;99.90;;;;;;4972628;28;20237;-79
2023/05/08 03:46:57;;;;;;;18.63;16.63;;;14.50;99.90;;;;;;4973035;28;20201;-79
2023/05/08 03:49:26;;;;;;;20.70;17.73;;;14.50;99.90;;;;;;4957115;28;20585;-80
2023/05/08 03:51:54;;;;;;;20.70;18.07;;;14.50;99.90;;;;;;4965605;28;20198;-76
2023/05/08 03:54:24;;;;;;;19.60;17.00;;;14.50;99.90;;;;;;4970005;28;20185;-78
2023/05/08 03:56:52;;;;;;;19.67;17.50;;;14.50;99.90;;;;;;4972324;28;20224;-78
2023/05/08 03:59:29;;;;;;;20.03;17.73;;;14.50;99.90;;;;;;4975756;28;20223;-78
2023/05/08 04:02:08;;;;;;;19.70;17.57;;;14.50;99.90;;;;;;4974853;28;20285;-77
2023/05/08 04:04:40;;;;;;;20.73;17.83;;;14.60;99.90;;;;;;4959091;28;20225;-78
2023/05/08 04:07:15;;;;;;;19.40;17.33;;;14.50;99.90;;;;;;4957857;28;20699;-77
2023/05/08 04:09:55;;;;;;;19.60;17.60;;;14.60;99.90;;;;;;4975067;28;20222;-78
2023/05/08 04:12:26;;;;;;;21.77;18.43;;;14.60;99.90;;;;;;4975899;28;20674;-77
2023/05/08 04:15:01;;;;;;;20.47;18.27;;;14.60;99.90;;;;;;4960513;28;20604;-77
2023/05/08 04:17:37;;;;;;;19.93;17.93;;;14.60;99.90;;;;;;4960633;28;20258;-77
2023/05/08 04:20:09;;;;;;;18.50;16.03;;;14.60;99.90;;;;;;4960514;28;21659;-77
2023/05/08 04:22:39;;;;;;;18.63;16.67;;;14.60;99.90;;;;;;4959669;28;20209;-77
2023/05/08 04:25:08;;;;;;;17.80;15.90;;;14.60;99.90;;;;;;4960116;28;20324;-77
2023/05/08 04:27:36;;;;;;;19.97;17.90;;;14.60;99.90;;;;;;4966275;28;20203;-77
2023/05/08 04:30:06;;;;;;;20.27;17.70;;;14.60;99.90;;;;;;4976345;28;20244;-77
2023/05/08 04:32:36;;;;;;;21.07;18.87;;;14.60;99.90;;;;;;4959875;28;20252;-78
2023/05/08 04:35:05;;;;;;;18.10;16.30;;;14.60;99.90;;;;;;4975872;28;20197;-77
2023/05/08 04:37:32;;;;;;;18.30;16.30;;;14.50;99.90;;;;;;4959447;28;20616;-78
2023/05/08 04:40:02;;;;;;;17.83;15.90;;;14.50;99.90;;;;;;4959451;28;20216;-77
2023/05/08 04:42:30;;;;;;;18.63;16.63;;;14.50;99.90;;;;;;4959952;28;20200;-77
2023/05/08 04:44:59;;;;;;;18.53;16.63;;;14.50;99.90;;;;;;4960735;28;20311;-77
2023/05/08 04:47:27;;;;;;;19.87;17.60;;;14.50;99.90;;;;;;4968028;28;20197;-77
2023/05/08 04:49:54;;;;;;;16.17;14.60;;;14.60;99.90;;;;;;4972700;28;20255;-78
2023/05/08 04:52:21;;;;;;;16.87;15.13;;;14.60;99.90;;;;;;4959334;28;20200;-77
2023/05/08 04:54:48;;;;;;;17.13;15.37;;;14.60;99.90;;;;;;4959293;28;20334;-77
2023/05/08 04:57:15;;;;;;;16.20;14.50;;;14.60;99.90;;;;;;4962538;28;20203;-77
2023/05/08 04:59:41;;;;;;;16.53;14.83;;;14.60;99.90;;;;;;4961013;28;20290;-77
2023/05/08 05:02:08;;;;;;;19.57;17.30;;;14.70;99.90;;;;;;4960471;28;20195;-77
2023/05/08 05:04:37;;;;;;;18.23;16.33;;;14.70;99.90;;;;;;4961803;28;20649;-77
2023/05/08 05:07:05;;;;;;;17.17;15.37;;;14.70;99.90;;;;;;4962893;28;20203;-77
2023/05/08 05:09:35;;;;;;;18.43;16.53;;;14.70;99.90;;;;;;4963266;28;20220;-78
2023/05/08 05:12:03;;;;;;;16.60;15.00;;;14.70;99.90;;;;;;4962695;28;20224;-79
2023/05/08 05:14:30;;;;;;;18.10;16.30;;;14.70;99.90;;;;;;4961999;28;20198;-77
2023/05/08 05:16:57;;;;;;;17.90;16.07;;;14.70;99.90;;;;;;4962259;28;20616;-78
2023/05/08 05:19:24;;;;;;;24.20;15.53;;;14.80;99.90;;;;;;4961901;28;20336;-78
2023/05/08 05:21:52;;;;;;;17.77;16.07;;;14.70;99.90;;;;;;4963369;28;20220;-78
2023/05/08 05:24:19;;;;;;;17.80;15.97;;;14.70;99.90;;;;;;4962262;28;20700;-77
2023/05/08 05:26:46;;;;;;;17.90;16.20;;;14.70;99.90;;;;;;4962139;28;20203;-77
2023/05/08 05:29:13;;;;;;;16.90;15.17;;;14.70;99.90;;;;;;4978704;28;20219;-77
2023/05/08 05:31:40;;;;;;;17.63;15.93;;;14.80;99.90;;;;;;4960514;28;20215;-78
2023/05/08 05:34:07;;;;;;;16.90;15.20;;;14.80;99.90;;;;;;4960831;28;20211;-78
2023/05/08 05:36:35;;;;;;;17.23;15.43;;;14.80;99.90;;;;;;4968010;28;20217;-77
2023/05/08 05:39:04;;;;;;;14.87;13.47;;;14.80;99.90;;;;;;4974726;28;20267;-77
2023/05/08 05:41:33;;;;;;;14.67;13.00;;;14.90;99.90;;;;;;4961914;28;20192;-77
2023/05/08 05:44:00;;;;;;;13.40;12.20;;;15.00;99.90;;;;;;4959160;28;20208;-77
2023/05/08 05:46:31;;;;;;;14.80;13.30;;;15.00;99.90;;;;;;4959057;28;20224;-77
2023/05/08 05:48:59;;;;;;;15.10;13.60;;;15.10;99.90;;;;;;4961753;28;20263;-77
2023/05/08 05:51:26;;;;;;;15.60;14.07;;;15.20;99.90;;;;;;4971558;28;20205;-77
2023/05/08 05:53:53;;;;;;;16.67;14.97;;;15.30;99.90;;;;;;4967912;28;20217;-77
2023/05/08 05:56:22;;;;;;;16.30;14.60;;;15.30;99.90;;;;;;4976155;28;20193;-77
2023/05/08 05:58:49;;;;;;;15.57;14.07;;;15.30;99.90;;;;;;4968652;28;20232;-77
2023/05/08 06:01:16;;;;;;;16.27;14.57;;;15.30;99.90;;;;;;4958012;28;20586;-77
2023/05/08 06:03:43;;;;;;;15.13;13.63;;;15.30;99.90;;;;;;4958499;28;20216;-76
2023/05/08 06:06:10;;;;;;;16.70;15.03;;;15.30;99.90;;;;;;4967133;28;20279;-76
2023/05/08 06:08:36;;;;;;;15.53;14.03;;;15.40;99.90;;;;;;4958382;28;20270;-77
2023/05/08 06:11:03;;;;;;;15.10;13.60;;;15.40;99.90;;;;;;4958633;28;20556;-77
2023/05/08 06:13:31;;;;;;;14.90;13.40;;;15.40;99.90;;;;;;4976585;28;20197;-76
2023/05/08 06:15:58;;;;;;;13.13;11.83;;;15.40;99.90;;;;;;4966557;28;20201;-77
2023/05/08 06:18:25;;;;;;;14.53;13.03;;;15.50;99.90;;;;;;4958244;28;20223;-77
2023/05/08 06:20:56;;;;;;;13.07;11.77;;;15.50;99.90;;;;;;4958559;28;20716;-77
2023/05/08 06:23:23;;;;;;;12.80;11.60;;;15.50;99.90;;;;;;4975696;28;20222;-77
2023/05/08 06:25:50;;;;;;;13.33;12.03;;;15.50;99.90;;;;;;4958758;28;20224;-77
2023/05/08 06:28:16;;;;;;;13.77;12.43;;;15.50;99.90;;;;;;4958206;28;20243;-77
2023/05/08 06:30:45;;;;;;;14.10;12.63;;;15.50;99.90;;;;;;4958367;28;20205;-77
2023/05/08 06:33:11;;;;;;;13.67;12.20;;;15.50;99.90;;;;;;4975387;28;20194;-77
2023/05/08 06:35:38;;;;;;;14.73;13.23;;;15.40;99.90;;;;;;4958499;28;20200;-77
2023/05/08 06:38:05;;;;;;;14.87;13.27;;;15.50;99.90;;;;;;4975665;28;20253;-77
2023/05/08 06:40:32;;;;;;;15.23;13.73;;;15.50;99.90;;;;;;4976139;28;20669;-77
2023/05/08 06:42:58;;;;;;;14.80;13.30;;;15.50;99.90;;;;;;4958708;28;20672;-77
2023/05/08 06:45:25;;;;;;;14.07;12.67;;;15.50;99.90;;;;;;4975600;28;20241;-77
2023/05/08 06:47:53;;;;;;;17.47;15.53;;;15.50;99.90;;;;;;4975458;28;20197;-77
2023/05/08 06:50:20;;;;;;;15.50;13.97;;;15.50;99.90;;;;;;4974590;28;20204;-77
2023/05/08 06:52:47;;;;;;;15.53;13.93;;;15.60;99.90;;;;;;4971579;28;20273;-77
2023/05/08 06:55:14;;;;;;;16.00;14.40;;;15.60;99.90;;;;;;4975485;28;20232;-77
2023/05/08 06:57:41;;;;;;;16.73;14.90;;;15.50;99.90;;;;;;4975355;28;20330;-77
2023/05/08 07:00:09;;;;;;;15.47;13.87;;;15.50;99.90;;;;;;4962620;28;20602;-77
2023/05/08 07:02:36;;;;;;;15.33;13.83;;;15.50;99.90;;;;;;4971848;28;20689;-77
2023/05/08 07:05:04;;;;;;;15.20;13.70;;;15.60;99.90;;;;;;4958336;28;20761;-77
2023/05/08 07:07:31;;;;;;;16.20;14.50;;;15.70;99.90;;;;;;4975559;28;20194;-77
2023/05/08 07:09:58;;;;;;;15.93;14.33;;;15.70;99.90;;;;;;4974535;28;20253;-77
2023/05/08 07:12:25;;;;;;;17.23;15.33;;;15.70;99.90;;;;;;4974644;28;20744;-77
2023/05/08 07:14:52;;;;;;;16.77;14.97;;;15.80;99.90;;;;;;4957664;28;20198;-77
2023/05/08 07:17:19;;;;;;;17.50;15.70;;;15.80;99.90;;;;;;4963312;28;20198;-77
2023/05/08 07:19:50;;;;;;;15.90;14.30;;;15.70;99.90;;;;;;4974980;28;20229;-77
2023/05/08 07:22:19;;;;;;;17.13;15.37;;;15.70;99.90;;;;;;4973168;28;20198;-77
2023/05/08 07:24:46;;;;;;;20.47;16.87;;;15.70;99.90;;;;;;4974364;28;20206;-77
2023/05/08 07:27:14;;;;;;;17.80;15.87;;;15.60;99.90;;;;;;4956368;28;20218;-77
2023/05/08 07:29:41;;;;;;;18.57;16.57;;;15.60;99.90;;;;;;4975025;28;20224;-77
2023/05/08 07:32:08;;;;;;;19.10;16.67;;;15.60;99.90;;;;;;4956931;28;20206;-77
2023/05/08 07:34:35;;;;;;;18.47;16.50;;;15.50;99.90;;;;;;4974877;28;20283;-77
2023/05/08 07:37:02;;;;;;;19.30;17.30;;;15.40;99.90;;;;;;4966104;28;20192;-77
2023/05/08 07:39:30;;;;;;;19.73;17.77;;;15.40;99.90;;;;;;4956723;28;20709;-77
2023/05/08 07:41:57;;;;;;;18.80;16.80;;;15.30;99.90;;;;;;4972943;28;20216;-77
2023/05/08 07:44:23;;;;;;;18.33;16.47;;;15.30;99.90;;;;;;4974215;28;20190;-77
2023/05/08 07:46:51;;;;;;;19.43;16.57;;;15.20;99.90;;;;;;4956404;28;20233;-77
2023/05/08 07:49:18;;;;;;;18.73;16.57;;;15.20;99.90;;;;;;4975639;28;20308;-78
2023/05/08 07:51:45;;;;;;;18.87;16.87;;;15.20;99.90;;;;;;4976608;28;20201;-78
2023/05/08 07:54:11;;;;;;;17.70;15.90;;;15.20;99.90;;;;;;4958422;28;20209;-77
2023/05/08 07:56:39;;;;;;;18.60;16.50;;;15.20;99.90;;;;;;4960507;28;20209;-77
2023/05/08 07:59:06;;;;;;;18.27;16.37;;;15.20;99.90;;;;;;4975309;28;20633;-76
2023/05/08 08:01:33;;;;;;;21.70;19.40;;;15.20;99.90;;;;;;4975693;28;20273;-77
2023/05/08 08:04:00;;;;;;;16.57;14.87;;;15.10;99.90;;;;;;4975195;28;20246;-75
2023/05/08 08:06:27;;;;;;;17.07;15.27;;;15.10;99.90;;;;;;4955648;28;20601;-76
2023/05/08 08:08:54;;;;;;;17.23;15.53;;;15.10;99.90;;;;;;4972908;28;20314;-75
2023/05/08 08:11:21;;;;;;;16.23;14.63;;;15.10;99.90;;;;;;4972683;28;20201;-76
2023/05/08 08:13:49;;;;;;;15.03;13.47;;;15.10;99.90;;;;;;4955510;28;20246;-75
2023/05/08 08:16:16;;;;;;;14.43;13.00;;;15.20;99.90;;;;;;4972878;28;20269;-75
2023/05/08 08:18:43;;;;;;;14.00;12.60;;;15.20;99.90;;;;;;4972681;28;20260;-75
2023/05/08 08:21:09;;;;;;;15.23;13.80;;;15.30;99.90;;;;;;4955278;28;20214;-76
2023/05/08 08:23:37;;;;;;;13.60;12.30;;;15.30;99.90;;;;;;4972058;28;20272;-76
2023/05/08 08:26:04;;;;;;;12.80;11.50;;;15.30;99.90;;;;;;4972648;28;20218;-76
2023/05/08 08:28:30;;;;;;;11.67;10.57;;;15.40;99.90;;;;;;4968158;28;20723;-76
2023/05/08 08:30:59;;;;;;;14.23;12.83;;;15.50;99.90;;;;;;4955230;28;20209;-76
2023/05/08 08:33:27;;;;;;;12.43;11.20;;;15.50;99.90;;;;;;4972147;28;20197;-76
2023/05/08 08:35:54;;;;;;;12.53;11.30;;;15.50;99.90;;;;;;4972437;28;20289;-75
2023/05/08 08:38:21;;;;;;;13.93;12.53;;;15.60;99.90;;;;;;4954604;28;20654;-75
2023/05/08 08:40:47;;;;;;;13.87;12.20;;;15.50;99.90;;;;;;4972711;28;20628;-76
2023/05/08 08:43:14;;;;;;;13.67;12.20;;;15.50;99.90;;;;;;4972665;28;20201;-76
2023/05/08 08:45:41;;;;;;;11.80;10.60;;;15.40;99.90;;;;;;4955128;28;20224;-75
2023/05/08 08:48:11;;;;;;;11.60;10.40;;;15.50;99.90;;;;;;4972271;28;20644;-75
2023/05/08 08:50:42;;;;;;;10.77;9.70;;;15.60;99.90;;;;;;4971168;28;20209;-75
2023/05/08 08:53:15;;;;;;;10.93;9.83;;;15.80;99.90;;;;;;4971545;28;20208;-76
2023/05/08 08:55:46;;;;;;;11.17;10.07;;;15.90;99.90;;;;;;4972422;28;20284;-76
2023/05/08 08:58:17;;;;;;;9.83;8.83;;;16.00;99.90;;;;;;4972255;28;20221;-75
2023/05/08 09:00:44;;;;;;;10.20;9.20;;;16.10;99.90;;;;;;4957982;28;20210;-77
2023/05/08 09:03:13;;;;;;;10.63;9.57;;;16.20;99.90;;;;;;4955101;28;20685;-79
2023/05/08 09:05:40;;;;;;;10.27;9.27;;;16.30;99.90;;;;;;4955311;28;20640;-78
2023/05/08 09:08:08;;;;;;;9.67;8.77;;;16.30;99.90;;;;;;4971964;28;20225;-80
2023/05/08 09:10:36;;;;;;;9.80;8.90;;;16.40;99.90;;;;;;4974091;28;20253;-79
2023/05/08 09:13:04;;;;;;;9.80;8.80;;;16.40;99.90;;;;;;4971813;28;20213;-79
2023/05/08 09:15:31;;;;;;;8.90;8.10;;;16.40;99.90;;;;;;4973076;28;20218;-79
2023/05/08 09:17:58;;;;;;;9.20;8.30;;;16.60;99.90;;;;;;4956477;28;20207;-79
2023/05/08 09:20:27;;;;;;;7.87;7.17;;;16.70;99.90;;;;;;4957692;28;20201;-79
2023/05/08 09:22:54;;;;;;;8.33;7.53;;;16.80;99.90;;;;;;4954730;28;20642;-80
2023/05/08 09:25:21;;;;;;;8.60;7.23;;;16.90;99.90;;;;;;4952611;28;20620;-77
2023/05/08 09:27:48;;;;;;;8.97;8.07;;;17.00;99.90;;;;;;4957562;28;20206;-80
2023/05/08 09:30:15;;;;;;;8.33;7.47;;;17.10;99.90;;;;;;4972378;28;20262;-80
2023/05/08 09:32:43;;;;;;;9.23;6.70;;;17.10;99.90;;;;;;4966716;28;20259;-80
2023/05/08 09:35:11;;;;;;;7.67;6.97;;;17.30;99.90;;;;;;4957017;28;20191;-80
2023/05/08 09:37:40;;;;;;;7.53;6.83;;;17.40;99.90;;;;;;4970336;28;20206;-78
2023/05/08 09:40:14;;;;;;;6.67;6.07;;;17.40;99.90;;;;;;4972196;28;20219;-78
2023/05/08 09:42:41;;;;;;;7.67;6.67;;;17.60;99.90;;;;;;4971700;28;20246;-78
2023/05/08 09:45:09;;;;;;;7.47;6.77;;;17.90;99.90;;;;;;4965219;28;20290;-77
2023/05/08 09:47:38;;;;;;;8.90;8.13;;;17.90;99.90;;;;;;4970706;28;20213;-78
2023/05/08 09:50:07;;;;;;;6.93;6.33;;;17.90;99.90;;;;;;4966907;28;20244;-78
2023/05/08 09:52:35;;;;;;;6.67;6.07;;;17.90;99.90;;;;;;4965948;28;20673;-77
2023/05/08 09:55:06;;;;;;;8.00;7.20;;;18.00;99.90;;;;;;4975267;28;20208;-80
2023/05/08 09:57:35;;;;;;;7.47;6.77;;;18.10;99.90;;;;;;4968024;28;20193;-78
2023/05/08 10:00:05;;;;;;;6.80;6.17;;;18.10;99.90;;;;;;4969363;28;20228;-78
2023/05/08 10:02:34;;;;;;;9.50;8.60;;;18.20;99.90;;;;;;4975266;28;20215;-77
2023/05/08 10:05:01;;;;;;;7.87;7.17;;;18.20;99.90;;;;;;4974290;28;20212;-77
2023/05/08 10:07:30;;;;;;;10.27;9.37;;;18.10;99.90;;;;;;4975891;28;20214;-77
2023/05/08 10:10:01;;;;;;;9.80;9.00;;;18.20;99.90;;;;;;4965594;28;20264;-79
2023/05/08 10:12:30;;;;;;;8.73;7.93;;;18.10;99.90;;;;;;4961430;28;20236;-79
2023/05/08 10:14:57;;;;;;;9.37;8.47;;;18.20;99.90;;;;;;4974932;28;20292;-79
2023/05/08 10:17:44;;;;;;;9.23;8.37;;;18.10;99.90;;;;;;4971484;28;20197;-82
2023/05/08 10:20:15;;;;;;;11.13;10.23;;;18.10;99.90;;;;;;4975943;28;20216;-82
2023/05/08 10:22:44;;;;;;;10.20;9.40;;;18.20;99.90;;;;;;4974846;28;20284;-81
2023/05/08 10:25:17;;;;;;;10.10;9.30;;;18.40;99.90;;;;;;4975103;28;20703;-82
2023/05/08 10:27:53;;;;;;;10.90;9.90;;;18.50;99.90;;;;;;4975181;28;20221;-82
2023/05/08 10:30:24;;;;;;;7.43;6.73;;;18.60;99.90;;;;;;4978626;28;20201;-83
2023/05/08 10:32:53;;;;;;;7.13;6.43;;;18.90;99.90;;;;;;4987000;28;20213;-85
2023/05/08 10:35:22;;;;;;;7.77;7.07;;;18.80;99.90;;;;;;4975316;28;20217;-83
2023/05/08 10:37:50;;;;;;;8.10;6.60;;;18.80;99.90;;;;;;4965555;28;20225;-81
2023/05/08 10:40:20;;;;;;;6.47;5.87;;;18.90;99.90;;;;;;4987252;28;20293;-83
2023/05/08 10:42:49;;;;;;;6.73;6.10;;;19.00;99.90;;;;;;4975377;28;20198;-82
2023/05/08 10:45:16;;;;;;;7.10;6.50;;;19.10;99.90;;;;;;4968541;28;20548;-83
2023/05/08 10:47:54;;;;;;;7.00;6.27;;;19.00;99.90;;;;;;4975624;28;20312;-82
2023/05/08 10:50:39;;;;;;;7.50;6.50;;;19.00;99.90;;;;;;4967551;28;20209;-83
2023/05/08 10:53:11;;;;;;;6.87;6.27;;;19.10;99.90;;;;;;4982982;28;20239;-84
2023/05/08 10:55:42;;;;;;;7.20;6.60;;;19.20;99.90;;;;;;4973001;28;20698;-83
2023/05/08 10:58:15;;;;;;;7.60;6.80;;;19.30;99.90;;;;;;4958845;28;20233;-83
2023/05/08 11:01:16;;;;;;;7.53;6.83;;;19.30;99.90;;;;;;4969514;28;20615;-83
2023/05/08 11:03:49;;;;;;;8.17;7.47;;;19.20;99.90;;;;;;4981189;28;20205;-83
2023/05/08 11:06:16;;;;;;;7.63;6.93;;;19.10;99.90;;;;;;4965420;28;20198;-83
2023/05/08 11:08:48;;;;;;;8.50;7.10;;;19.10;99.90;;;;;;4958221;28;20288;-83
2023/05/08 11:11:27;;;;;;;6.87;6.27;;;18.90;99.90;;;;;;4975095;28;20681;-81
2023/05/08 11:14:08;;;;;;;6.90;6.27;;;18.90;99.90;;;;;;4975922;28;20196;-83
2023/05/08 11:17:06;;;;;;;6.93;6.30;;;18.80;99.90;;;;;;4975622;28;20186;-83
2023/05/08 11:19:34;;;;;;;8.00;7.30;;;18.80;99.90;;;;;;4965287;28;20226;-83
2023/05/08 11:22:27;;;;;;;6.73;6.10;;;18.80;99.90;;;;;;4973569;28;20202;-82
2023/05/08 11:25:03;;;;;;;7.50;6.83;;;18.60;99.90;;;;;;4974925;28;20318;-82
2023/05/08 11:27:48;;;;;;;7.57;6.77;;;18.50;99.90;;;;;;4965442;28;20244;-82
2023/05/08 11:30:21;;;;;;;7.67;6.83;;;18.30;99.90;;;;;;4965415;28;20205;-84
2023/05/08 11:33:14;;;;;;;10.70;9.83;;;18.30;99.90;;;;;;4972233;28;20288;-82
2023/05/08 11:35:48;;;;;;;7.90;7.20;;;18.20;99.90;;;;;;4966141;28;20260;-82
2023/05/08 11:38:17;;;;;;;8.57;7.77;;;18.10;99.90;;;;;;4979571;28;20256;-82
2023/05/08 11:40:51;;;;;;;9.63;7.70;;;18.00;99.90;;;;;;4965283;28;20216;-82
2023/05/08 11:44:01;;;;;;;8.00;7.20;;;18.00;99.90;;;;;;4973593;28;20224;-82
2023/05/08 11:46:39;;;;;;;7.67;6.97;;;18.00;99.90;;;;;;4962511;28;20313;-82
2023/05/08 11:49:10;;;;;;;9.10;8.27;;;18.00;99.90;;;;;;4969575;28;20244;-77
2023/05/08 11:51:38;;;;;;;10.67;7.50;;;17.90;99.90;;;;;;4965253;28;20201;-78
2023/05/08 11:54:05;;;;;;;8.13;7.43;;;17.90;99.90;;;;;;4964458;28;20201;-77
2023/05/08 11:56:32;;;;;;;11.27;10.47;;;17.90;99.90;;;;;;4973897;28;20248;-77
2023/05/08 11:59:03;;;;;;;7.20;6.50;;;17.90;99.90;;;;;;4968614;28;20730;-77
2023/05/08 12:01:31;;;;;;;8.07;7.27;;;17.90;99.90;;;;;;4973735;28;20221;-77
2023/05/08 12:04:02;;;;;;;9.27;8.37;;;17.90;99.90;;;;;;4973329;28;20583;-78
2023/05/08 12:06:30;;;;;;;10.43;9.60;;;17.90;99.90;;;;;;4963291;28;20229;-77
2023/05/08 12:08:58;;;;;;;10.83;9.93;;;18.00;99.90;;;;;;4956958;28;20731;-77
2023/05/08 12:11:25;;;;;;;10.80;9.90;;;17.90;99.90;;;;;;4957943;28;20288;-77
2023/05/08 12:13:52;;;;;;;12.00;10.83;;;17.90;99.90;;;;;;4972857;28;20234;-77
2023/05/08 12:16:20;;;;;;;9.97;9.17;;;17.90;99.90;;;;;;4973663;28;20263;-78
2023/05/08 12:18:49;;;;;;;11.30;10.30;;;17.90;99.90;;;;;;4974090;28;20216;-78
2023/05/08 12:21:17;;;;;;;9.77;8.97;;;17.90;99.90;;;;;;4964397;28;20206;-77
2023/05/08 12:23:45;;;;;;;15.10;9.43;;;18.10;99.90;;;;;;4973583;28;20296;-78
2023/05/08 12:26:12;;;;;;;8.57;7.67;;;18.00;99.90;;;;;;4973365;28;20654;-78
2023/05/08 12:28:39;;;;;;;9.50;8.60;;;18.00;99.90;;;;;;4973923;28;20225;-78
2023/05/08 12:31:07;;;;;;;8.73;7.93;;;18.10;99.90;;;;;;4965100;28;20205;-78
2023/05/08 12:33:34;;;;;;;8.53;7.63;;;18.20;99.90;;;;;;4977898;28;20211;-77
2023/05/08 12:36:01;;;;;;;11.87;10.77;;;18.30;99.90;;;;;;4964202;28;20204;-77
2023/05/08 12:38:30;;;;;;;15.33;13.93;;;18.30;99.90;;;;;;4979996;28;20302;-78
2023/05/08 12:40:57;;;;;;;13.33;12.10;;;18.30;99.90;;;;;;4970572;28;20612;-77
2023/05/08 12:43:31;;;;;;;12.43;11.23;;;18.40;99.90;;;;;;4973316;28;20208;-77
2023/05/08 12:45:58;;;;;;;14.67;13.17;;;18.50;99.90;;;;;;4973413;28;20219;-77